Time;durP1;ratioP1;P1;durP2;ratioP2;P2;SDS_P1;SDS_P2;PMS_P1;PMS_P2;Temp;Humidity;BMP_temperature;BMP_pressure;BME280_temperature;BME280_humidity;BME280_pressure;Samples;Min_cycle;Max_cycle;Signal;HPM_P1;HPM_P2
2022/03/29 00:00:26;;;;;;;56.85;37.97;;;;;;;;;;5006317;28;100964;-72
2022/03/29 00:02:53;;;;;;;53.33;33.83;;;;;;;;;;5008011;28;98479;-72
2022/03/29 00:05:19;;;;;;;47.22;32.58;;;;;;;;;;5006295;28;100068;-72
2022/03/29 00:07:45;;;;;;;66.03;35.08;;;;;;;;;;5007023;28;100281;-73
2022/03/29 00:10:12;;;;;;;65.00;36.53;;;;;;;;;;5003402;28;100158;-72
2022/03/29 00:12:38;;;;;;;58.38;37.63;;;;;;;;;;5005708;28;100804;-72
2022/03/29 00:15:05;;;;;;;73.22;40.15;;;;;;;;;;5006207;28;99454;-72
2022/03/29 00:17:32;;;;;;;58.85;37.90;;;;;;;;;;5008616;28;98331;-72
2022/03/29 00:19:58;;;;;;;56.15;36.65;;;;;;;;;;5006146;28;100300;-72
2022/03/29 00:22:25;;;;;;;69.78;41.55;;;;;;;;;;5003466;28;99828;-72
2022/03/29 00:24:51;;;;;;;65.00;38.15;;;;;;;;;;5004905;28;100246;-72
2022/03/29 00:27:18;;;;;;;60.88;33.30;;;;;;;;;;5005422;28;100028;-72
2022/03/29 00:29:45;;;;;;;62.53;39.95;;;;;;;;;;5004883;28;98649;-72
2022/03/29 00:32:11;;;;;;;62.47;35.67;;;;;;;;;;5005410;28;100170;-72
2022/03/29 00:34:38;;;;;;;65.35;39.38;;;;;;;;;;5005947;28;100342;-72
2022/03/29 00:37:04;;;;;;;67.28;39.65;;;;;;;;;;5004660;28;99154;-72
2022/03/29 00:39:31;;;;;;;64.57;40.10;;;;;;;;;;5006273;28;100186;-72
2022/03/29 00:41:58;;;;;;;58.05;37.08;;;;;;;;;;5006966;28;97959;-72
2022/03/29 00:44:28;;;;;;;66.55;39.53;;;;;;;;;;5004530;28;99328;-72
2022/03/29 00:46:55;;;;;;;56.35;33.97;;;;;;;;;;4984959;28;100603;-72
2022/03/29 00:49:21;;;;;;;73.53;39.35;;;;;;;;;;4985817;28;99317;-72
2022/03/29 00:51:49;;;;;;;74.40;41.30;;;;;;;;;;5005272;28;102921;-73
2022/03/29 00:54:16;;;;;;;60.15;39.72;;;;;;;;;;5004799;28;100290;-72
2022/03/29 00:56:42;;;;;;;61.58;40.15;;;;;;;;;;5005127;28;98846;-72
2022/03/29 00:59:09;;;;;;;70.93;35.97;;;;;;;;;;5005486;28;99401;-72
2022/03/29 01:01:36;;;;;;;111.28;37.22;;;;;;;;;;5008841;27;102022;-73
2022/03/29 01:04:02;;;;;;;65.05;32.47;;;;;;;;;;5005921;28;99882;-72
2022/03/29 01:06:29;;;;;;;66.63;36.38;;;;;;;;;;5004245;28;99576;-72
2022/03/29 01:08:55;;;;;;;89.68;36.80;;;;;;;;;;4966752;28;1114189;-72
2022/03/29 01:11:22;;;;;;;60.22;37.05;;;;;;;;;;5004452;28;100251;-72
2022/03/29 01:13:48;;;;;;;61.03;36.75;;;;;;;;;;5006502;27;100144;-72
2022/03/29 01:19:00;;;;;;;121.72;34.10;;;;;;;;;;5006219;28;100103;-73
2022/03/29 01:21:30;;;;;;;84.63;37.30;;;;;;;;;;5006095;28;99429;-73
2022/03/29 01:23:56;;;;;;;109.00;36.63;;;;;;;;;;5010594;28;98590;-73
2022/03/29 01:26:23;;;;;;;131.48;35.50;;;;;;;;;;5004155;28;99393;-73
2022/03/29 01:28:49;;;;;;;78.07;34.20;;;;;;;;;;5006313;28;98590;-73
2022/03/29 01:31:16;;;;;;;165.93;39.17;;;;;;;;;;5006891;28;99747;-73
2022/03/29 01:33:44;;;;;;;120.57;40.45;;;;;;;;;;5006127;28;99975;-73
2022/03/29 01:36:10;;;;;;;81.10;40.35;;;;;;;;;;5005618;28;98737;-73
2022/03/29 01:38:36;;;;;;;101.80;33.65;;;;;;;;;;5006559;28;99267;-73
2022/03/29 01:41:05;;;;;;;155.27;39.03;;;;;;;;;;5005280;28;101669;-73
2022/03/29 01:43:32;;;;;;;77.32;41.05;;;;;;;;;;5007999;28;98597;-73
2022/03/29 01:45:59;;;;;;;148.20;45.00;;;;;;;;;;5006887;28;99341;-73
2022/03/29 01:48:26;;;;;;;94.47;44.25;;;;;;;;;;5005127;28;99128;-73
2022/03/29 01:50:52;;;;;;;141.65;45.08;;;;;;;;;;5005245;28;99278;-73
2022/03/29 01:53:23;;;;;;;98.22;40.60;;;;;;;;;;5005564;28;100414;-73
2022/03/29 01:55:53;;;;;;;102.82;32.85;;;;;;;;;;5005845;28;99400;-73
2022/03/29 01:58:20;;;;;;;79.70;37.67;;;;;;;;;;5006409;28;98515;-73
2022/03/29 02:00:46;;;;;;;166.57;38.53;;;;;;;;;;5009037;28;100238;-73
2022/03/29 02:03:13;;;;;;;95.45;36.88;;;;;;;;;;5008071;28;99283;-73
2022/03/29 02:05:39;;;;;;;157.70;41.92;;;;;;;;;;5013639;27;99835;-73
2022/03/29 02:08:07;;;;;;;191.15;46.30;;;;;;;;;;5009500;28;98615;-73
2022/03/29 02:10:33;;;;;;;123.85;35.10;;;;;;;;;;5007487;28;100104;-73
2022/03/29 02:12:59;;;;;;;181.57;49.20;;;;;;;;;;5010101;28;99528;-73
2022/03/29 02:15:26;;;;;;;157.27;47.03;;;;;;;;;;5006209;28;98658;-73
2022/03/29 02:17:52;;;;;;;161.27;47.22;;;;;;;;;;5009861;28;100689;-73
2022/03/29 02:20:20;;;;;;;162.90;41.97;;;;;;;;;;5009503;28;99111;-72
2022/03/29 02:22:47;;;;;;;140.88;44.75;;;;;;;;;;5008665;28;98609;-72
2022/03/29 02:25:13;;;;;;;96.38;35.08;;;;;;;;;;5008533;28;99938;-72
2022/03/29 02:27:41;;;;;;;194.68;37.15;;;;;;;;;;5012129;28;101060;-73
2022/03/29 02:30:08;;;;;;;94.47;35.28;;;;;;;;;;5007795;28;101126;-73
2022/03/29 02:32:35;;;;;;;173.88;39.83;;;;;;;;;;5007893;28;100874;-73
2022/03/29 02:35:01;;;;;;;172.35;43.88;;;;;;;;;;5009852;28;98506;-73
2022/03/29 02:37:28;;;;;;;135.95;40.35;;;;;;;;;;5007846;28;100023;-73
2022/03/29 02:39:54;;;;;;;136.48;40.75;;;;;;;;;;5008476;28;100141;-72
2022/03/29 02:42:21;;;;;;;147.70;41.63;;;;;;;;;;5008551;28;100876;-73
2022/03/29 02:44:47;;;;;;;128.38;40.78;;;;;;;;;;5009421;28;100109;-73
2022/03/29 02:47:13;;;;;;;137.15;37.97;;;;;;;;;;5007163;28;100026;-73
2022/03/29 02:49:40;;;;;;;248.65;43.38;;;;;;;;;;5011328;28;98595;-73
2022/03/29 02:52:06;;;;;;;200.90;42.88;;;;;;;;;;5006948;28;100116;-73
2022/03/29 02:54:33;;;;;;;134.60;36.70;;;;;;;;;;5009483;28;98867;-73
2022/03/29 02:57:00;;;;;;;111.93;34.38;;;;;;;;;;5008991;28;99320;-73
2022/03/29 02:59:27;;;;;;;96.57;37.42;;;;;;;;;;5007011;28;99828;-72
2022/03/29 03:01:53;;;;;;;117.38;40.25;;;;;;;;;;5008278;28;98558;-73
2022/03/29 03:04:20;;;;;;;166.75;41.58;;;;;;;;;;5007437;28;99059;-73
2022/03/29 03:06:46;;;;;;;100.22;36.15;;;;;;;;;;5007364;28;100309;-72
2022/03/29 03:09:13;;;;;;;176.70;43.33;;;;;;;;;;5008109;28;97813;-73
2022/03/29 03:11:39;;;;;;;129.75;42.88;;;;;;;;;;5008635;28;99567;-72
2022/03/29 03:14:06;;;;;;;205.88;39.92;;;;;;;;;;5009021;28;98590;-73
2022/03/29 03:16:32;;;;;;;124.55;42.03;;;;;;;;;;5008382;28;100132;-73
2022/03/29 03:19:18;;;;;;;97.22;38.10;;;;;;;;;;5006019;28;101754;-73
2022/03/29 03:21:45;;;;;;;106.75;37.65;;;;;;;;;;4993178;28;99106;-73
2022/03/29 03:24:13;;;;;;;95.55;30.08;;;;;;;;;;5008728;28;100020;-72
2022/03/29 03:26:39;;;;;;;81.78;35.03;;;;;;;;;;5006743;28;99540;-73
2022/03/29 03:29:06;;;;;;;82.32;33.53;;;;;;;;;;5008798;28;99060;-73
2022/03/29 03:31:32;;;;;;;67.03;29.02;;;;;;;;;;5008598;27;99702;-73
2022/03/29 03:33:59;;;;;;;154.32;31.45;;;;;;;;;;5011246;28;98761;-72
2022/03/29 03:36:25;;;;;;;109.95;31.42;;;;;;;;;;5006666;28;98587;-72
2022/03/29 03:38:51;;;;;;;98.68;32.90;;;;;;;;;;5007773;28;99354;-73
2022/03/29 03:41:18;;;;;;;114.82;34.13;;;;;;;;;;5006879;28;99606;-72
2022/03/29 03:43:44;;;;;;;60.47;28.67;;;;;;;;;;5007769;28;100818;-73
2022/03/29 03:46:11;;;;;;;112.18;35.25;;;;;;;;;;5008121;28;100199;-73
2022/03/29 03:48:37;;;;;;;65.13;34.33;;;;;;;;;;5007237;28;98947;-73
2022/03/29 03:51:04;;;;;;;73.82;33.42;;;;;;;;;;5007564;28;100223;-73
2022/03/29 03:53:31;;;;;;;81.45;32.47;;;;;;;;;;5010002;28;100290;-73
2022/03/29 03:55:57;;;;;;;74.53;30.95;;;;;;;;;;5006696;28;100322;-73
2022/03/29 03:58:23;;;;;;;76.57;31.75;;;;;;;;;;5007720;28;98746;-73
2022/03/29 04:00:50;;;;;;;61.00;30.48;;;;;;;;;;5006438;28;98987;-72
2022/03/29 04:03:17;;;;;;;81.07;31.75;;;;;;;;;;5008157;28;100003;-73
2022/03/29 04:05:43;;;;;;;71.32;30.35;;;;;;;;;;5006623;28;100966;-73
2022/03/29 04:08:10;;;;;;;68.43;32.22;;;;;;;;;;5004886;28;98580;-73
2022/03/29 04:10:37;;;;;;;47.85;27.05;;;;;;;;;;5008226;28;100219;-72
2022/03/29 04:13:04;;;;;;;70.60;25.42;;;;;;;;;;5006876;28;100499;-72
2022/03/29 04:15:31;;;;;;;61.83;29.10;;;;;;;;;;5009631;28;99213;-73
2022/03/29 04:18:00;;;;;;;95.28;32.40;;;;;;;;;;5006978;28;100750;-73
2022/03/29 04:20:26;;;;;;;87.35;32.08;;;;;;;;;;5006722;28;99404;-73
2022/03/29 04:22:54;;;;;;;81.70;30.63;;;;;;;;;;5005849;28;99888;-73
2022/03/29 04:25:21;;;;;;;58.65;28.95;;;;;;;;;;5006919;28;99490;-73
2022/03/29 04:27:47;;;;;;;66.45;29.50;;;;;;;;;;5007362;28;98656;-74
2022/03/29 04:30:14;;;;;;;70.35;32.30;;;;;;;;;;5005918;28;99935;-73
2022/03/29 04:32:40;;;;;;;83.38;29.00;;;;;;;;;;5007510;28;100146;-73
2022/03/29 04:35:07;;;;;;;65.75;29.38;;;;;;;;;;5008022;28;98492;-73
2022/03/29 04:37:33;;;;;;;53.00;28.05;;;;;;;;;;5008863;28;99300;-73
2022/03/29 04:39:59;;;;;;;56.20;28.45;;;;;;;;;;5006272;28;98565;-73
2022/03/29 04:42:26;;;;;;;72.50;32.17;;;;;;;;;;5006768;28;100091;-72
2022/03/29 04:44:52;;;;;;;61.33;29.55;;;;;;;;;;5006503;28;100214;-73
2022/03/29 04:47:18;;;;;;;73.70;32.53;;;;;;;;;;5008017;28;97778;-72
2022/03/29 04:49:45;;;;;;;62.33;29.00;;;;;;;;;;5005246;28;99021;-73
2022/03/29 04:52:12;;;;;;;61.75;28.38;;;;;;;;;;5005271;28;101004;-72
2022/03/29 04:54:38;;;;;;;83.10;30.50;;;;;;;;;;5005404;28;99319;-73
2022/03/29 04:57:05;;;;;;;71.82;29.38;;;;;;;;;;5005747;28;101305;-73
2022/03/29 04:59:31;;;;;;;90.22;29.90;;;;;;;;;;5009523;28;99332;-73
2022/03/29 05:01:58;;;;;;;62.47;27.90;;;;;;;;;;5007653;28;99386;-73
2022/03/29 05:04:24;;;;;;;68.50;31.90;;;;;;;;;;5005579;28;100289;-72
2022/03/29 05:06:50;;;;;;;61.72;31.73;;;;;;;;;;5007667;28;98878;-73
2022/03/29 05:09:17;;;;;;;57.17;31.85;;;;;;;;;;5006429;28;100184;-73
2022/03/29 05:11:43;;;;;;;63.90;32.90;;;;;;;;;;5005389;28;99998;-73
2022/03/29 05:14:09;;;;;;;64.88;32.70;;;;;;;;;;5006691;28;98610;-73
2022/03/29 05:16:36;;;;;;;56.00;31.65;;;;;;;;;;5006223;28;99875;-73
2022/03/29 05:19:03;;;;;;;68.90;31.98;;;;;;;;;;5005323;28;100061;-73
2022/03/29 05:21:30;;;;;;;54.70;30.90;;;;;;;;;;5010265;28;99470;-72
2022/03/29 05:23:56;;;;;;;64.75;33.08;;;;;;;;;;5006055;28;99479;-73
2022/03/29 05:26:24;;;;;;;51.47;31.02;;;;;;;;;;5005611;28;99090;-72
2022/03/29 05:28:50;;;;;;;53.25;31.70;;;;;;;;;;5000075;28;100065;-72
2022/03/29 05:31:16;;;;;;;57.22;30.27;;;;;;;;;;5006011;28;99396;-72
2022/03/29 05:33:43;;;;;;;45.03;25.90;;;;;;;;;;5006925;28;98916;-72
2022/03/29 05:36:09;;;;;;;51.42;30.13;;;;;;;;;;5010357;28;99152;-72
2022/03/29 05:38:36;;;;;;;59.83;33.47;;;;;;;;;;5009820;28;100296;-72
2022/03/29 05:41:02;;;;;;;57.63;30.58;;;;;;;;;;5010199;28;98996;-73
2022/03/29 05:43:28;;;;;;;41.35;26.83;;;;;;;;;;5011443;28;100129;-72
2022/03/29 05:48:52;;;;;;;37.00;26.45;;;;;;;;;;5009003;28;100633;-72
2022/03/29 05:51:22;;;;;;;47.13;30.40;;;;;;;;;;5009811;28;99339;-72
2022/03/29 05:53:49;;;;;;;51.20;31.52;;;;;;;;;;5008881;28;98586;-72
2022/03/29 05:56:16;;;;;;;52.13;31.88;;;;;;;;;;5010461;28;99154;-72
2022/03/29 05:58:42;;;;;;;57.13;31.85;;;;;;;;;;5008668;28;100497;-73
2022/03/29 06:01:09;;;;;;;54.65;32.13;;;;;;;;;;5009722;28;98830;-73
2022/03/29 06:03:35;;;;;;;53.15;32.92;;;;;;;;;;5012558;28;100116;-73
2022/03/29 06:06:02;;;;;;;45.63;25.92;;;;;;;;;;5010333;28;99149;-73
2022/03/29 06:08:29;;;;;;;36.20;24.45;;;;;;;;;;5007622;28;99913;-73
2022/03/29 06:10:56;;;;;;;49.35;29.77;;;;;;;;;;5009940;28;100864;-73
2022/03/29 06:13:22;;;;;;;55.00;33.80;;;;;;;;;;5009108;28;99009;-73
2022/03/29 06:15:49;;;;;;;39.13;22.35;;;;;;;;;;5007500;28;100079;-73
2022/03/29 06:18:16;;;;;;;50.70;31.80;;;;;;;;;;5008642;28;100149;-73
2022/03/29 06:20:46;;;;;;;46.47;28.48;;;;;;;;;;5008843;28;99103;-72
2022/03/29 06:23:13;;;;;;;50.08;32.63;;;;;;;;;;5007880;28;100019;-73
2022/03/29 06:25:39;;;;;;;42.25;27.73;;;;;;;;;;5012989;28;98577;-73
2022/03/29 06:28:05;;;;;;;46.53;27.83;;;;;;;;;;5009761;28;99289;-73
2022/03/29 06:30:32;;;;;;;47.05;29.92;;;;;;;;;;5007633;28;101134;-73
2022/03/29 06:32:59;;;;;;;48.35;28.48;;;;;;;;;;5008600;28;99366;-73
2022/03/29 06:35:26;;;;;;;44.13;28.98;;;;;;;;;;5009078;28;100250;-72
2022/03/29 06:37:55;;;;;;;50.15;28.55;;;;;;;;;;5009062;28;100620;-73
2022/03/29 06:40:23;;;;;;;47.65;27.63;;;;;;;;;;5008816;28;99390;-73
2022/03/29 06:42:50;;;;;;;43.67;28.48;;;;;;;;;;5007537;28;100008;-73
2022/03/29 06:45:16;;;;;;;44.03;29.35;;;;;;;;;;5008760;28;100431;-73
2022/03/29 06:47:43;;;;;;;42.15;26.70;;;;;;;;;;5010174;28;100200;-73
2022/03/29 06:50:10;;;;;;;41.17;26.38;;;;;;;;;;5008783;28;99517;-73
2022/03/29 06:52:39;;;;;;;47.30;26.95;;;;;;;;;;5008375;28;98642;-73
2022/03/29 06:55:06;;;;;;;40.80;27.13;;;;;;;;;;4989507;28;100020;-73
2022/03/29 06:57:33;;;;;;;47.08;29.52;;;;;;;;;;5004305;28;101357;-73
2022/03/29 06:59:59;;;;;;;49.80;29.60;;;;;;;;;;5008489;28;98581;-73
2022/03/29 07:02:28;;;;;;;39.45;24.38;;;;;;;;;;5007213;28;100151;-74
2022/03/29 07:04:55;;;;;;;44.10;28.20;;;;;;;;;;5007600;28;100427;-73
2022/03/29 07:07:21;;;;;;;37.95;23.45;;;;;;;;;;5004686;28;99142;-72
2022/03/29 07:12:54;;;;;;;43.88;25.95;;;;;;;;;;5007576;28;98514;-72
2022/03/29 07:15:21;;;;;;;41.65;24.88;;;;;;;;;;5009063;28;101578;-72
2022/03/29 07:17:48;;;;;;;37.55;23.55;;;;;;;;;;5007128;28;100492;-73
2022/03/29 07:20:16;;;;;;;37.58;26.05;;;;;;;;;;5008321;28;99808;-72
2022/03/29 07:22:45;;;;;;;37.05;25.23;;;;;;;;;;5004363;28;99778;-73
2022/03/29 07:25:11;;;;;;;35.38;22.17;;;;;;;;;;5014817;28;99556;-73
2022/03/29 07:27:38;;;;;;;37.70;26.58;;;;;;;;;;5009663;28;98958;-72
2022/03/29 07:30:05;;;;;;;39.35;26.92;;;;;;;;;;5007327;28;100044;-72
2022/03/29 07:32:32;;;;;;;35.30;24.85;;;;;;;;;;5004000;28;100398;-71
2022/03/29 07:34:59;;;;;;;33.13;24.17;;;;;;;;;;5006508;28;98984;-71
2022/03/29 07:37:25;;;;;;;31.83;24.33;;;;;;;;;;5002416;28;100328;-72
2022/03/29 07:39:53;;;;;;;44.88;26.00;;;;;;;;;;5002104;28;98390;-72
2022/03/29 07:42:21;;;;;;;36.38;24.40;;;;;;;;;;5007784;28;98716;-71
2022/03/29 07:44:49;;;;;;;42.42;23.70;;;;;;;;;;5006147;28;100196;-72
2022/03/29 07:47:17;;;;;;;39.00;24.55;;;;;;;;;;5007214;28;99808;-72
2022/03/29 07:49:44;;;;;;;36.83;25.85;;;;;;;;;;5008364;27;99808;-71
2022/03/29 07:52:30;;;;;;;32.22;19.92;;;;;;;;;;5002318;28;100364;-73
2022/03/29 07:54:57;;;;;;;42.45;26.92;;;;;;;;;;5007824;28;98518;-71
2022/03/29 07:57:23;;;;;;;38.80;23.25;;;;;;;;;;5007125;28;100284;-72
2022/03/29 08:02:56;;;;;;;43.58;25.45;;;;;;;;;;5007309;28;98977;-72
2022/03/29 08:05:23;;;;;;;41.60;26.33;;;;;;;;;;5008876;28;99016;-72
2022/03/29 08:07:49;;;;;;;43.58;27.63;;;;;;;;;;5004631;28;99406;-72
2022/03/29 08:10:16;;;;;;;40.30;27.13;;;;;;;;;;5008686;27;98950;-72
2022/03/29 08:12:42;;;;;;;30.33;17.95;;;;;;;;;;5007733;28;100997;-72
2022/03/29 08:15:10;;;;;;;37.10;26.98;;;;;;;;;;5010850;28;98621;-72
2022/03/29 08:17:38;;;;;;;38.65;25.08;;;;;;;;;;5008487;28;99587;-72
2022/03/29 08:20:07;;;;;;;37.38;25.33;;;;;;;;;;5008456;28;98538;-72
2022/03/29 08:22:34;;;;;;;32.97;23.42;;;;;;;;;;5006246;28;99664;-72
2022/03/29 08:25:01;;;;;;;42.90;27.25;;;;;;;;;;5006450;28;100237;-72
2022/03/29 08:27:28;;;;;;;45.70;27.27;;;;;;;;;;5007878;28;98570;-72
2022/03/29 08:29:54;;;;;;;39.45;27.38;;;;;;;;;;5007194;28;99193;-71
2022/03/29 08:32:21;;;;;;;37.08;26.38;;;;;;;;;;5006989;28;99927;-71
2022/03/29 08:34:47;;;;;;;39.25;27.08;;;;;;;;;;5007747;28;98573;-72
2022/03/29 08:37:14;;;;;;;37.83;25.73;;;;;;;;;;5009516;28;100156;-71
2022/03/29 08:39:40;;;;;;;37.72;23.67;;;;;;;;;;5007955;28;98661;-72
2022/03/29 08:42:07;;;;;;;37.90;24.73;;;;;;;;;;5006016;28;100100;-72
2022/03/29 08:44:34;;;;;;;39.97;25.60;;;;;;;;;;5007228;28;100162;-71
2022/03/29 08:47:01;;;;;;;34.55;24.02;;;;;;;;;;5007784;28;98511;-71
2022/03/29 08:49:27;;;;;;;32.05;23.83;;;;;;;;;;5007171;28;100206;-72
2022/03/29 08:51:54;;;;;;;31.17;22.02;;;;;;;;;;5007344;28;100214;-71
2022/03/29 08:54:20;;;;;;;35.17;21.95;;;;;;;;;;5007992;28;97810;-71
2022/03/29 08:56:47;;;;;;;35.75;23.95;;;;;;;;;;5007411;28;98791;-72
2022/03/29 08:59:13;;;;;;;37.70;23.50;;;;;;;;;;5010203;28;100206;-71
2022/03/29 09:01:40;;;;;;;41.83;27.10;;;;;;;;;;5007132;28;100049;-71
2022/03/29 09:04:06;;;;;;;39.63;25.25;;;;;;;;;;5006356;28;100449;-71
2022/03/29 09:06:33;;;;;;;36.00;23.83;;;;;;;;;;5007322;28;98605;-71
2022/03/29 09:08:59;;;;;;;39.90;24.60;;;;;;;;;;5009487;28;99340;-71
2022/03/29 09:11:38;;;;;;;34.97;24.60;;;;;;;;;;5009802;28;100219;-71
2022/03/29 09:14:04;;;;;;;36.38;23.92;;;;;;;;;;5011201;28;98682;-71
2022/03/29 09:16:33;;;;;;;32.85;22.20;;;;;;;;;;5010962;28;99674;-72
2022/03/29 09:19:00;;;;;;;31.45;23.10;;;;;;;;;;5010606;28;99528;-72
2022/03/29 09:21:28;;;;;;;37.92;21.35;;;;;;;;;;5013978;28;98535;-71
2022/03/29 09:24:05;;;;;;;32.30;21.67;;;;;;;;;;5010960;28;99347;-71
2022/03/29 09:26:31;;;;;;;33.00;23.13;;;;;;;;;;5009629;28;99389;-71
2022/03/29 09:28:58;;;;;;;33.97;24.75;;;;;;;;;;5011086;28;100880;-71
2022/03/29 09:31:27;;;;;;;33.50;23.13;;;;;;;;;;5009200;28;99288;-72
2022/03/29 09:34:12;;;;;;;39.95;25.65;;;;;;;;;;5010927;28;98547;-72
2022/03/29 09:36:40;;;;;;;39.65;24.38;;;;;;;;;;5010872;28;100065;-71
2022/03/29 09:39:06;;;;;;;41.90;24.02;;;;;;;;;;5009854;28;100184;-71
2022/03/29 09:41:35;;;;;;;33.95;22.02;;;;;;;;;;5010312;28;98849;-71
2022/03/29 09:44:19;;;;;;;30.67;23.00;;;;;;;;;;5012534;28;99036;-71
2022/03/29 09:46:52;;;;;;;33.15;22.10;;;;;;;;;;5009601;28;98527;-71
2022/03/29 09:49:20;;;;;;;37.10;24.85;;;;;;;;;;5009650;28;100077;-72
2022/03/29 09:51:47;;;;;;;39.78;21.85;;;;;;;;;;5009667;28;101228;-72
2022/03/29 09:54:14;;;;;;;36.95;25.58;;;;;;;;;;5009281;28;99226;-72
2022/03/29 09:56:49;;;;;;;33.75;23.52;;;;;;;;;;5010678;28;99976;-72
2022/03/29 09:59:16;;;;;;;39.00;24.05;;;;;;;;;;5011725;28;100236;-72
2022/03/29 10:02:00;;;;;;;44.72;25.38;;;;;;;;;;5010127;28;98932;-71
2022/03/29 10:04:29;;;;;;;37.67;23.63;;;;;;;;;;5025928;27;99273;-71
2022/03/29 10:06:56;;;;;;;39.85;26.38;;;;;;;;;;5013630;28;98685;-71
2022/03/29 10:09:26;;;;;;;39.05;27.15;;;;;;;;;;5010484;28;100314;-72
2022/03/29 10:12:04;;;;;;;38.60;24.98;;;;;;;;;;5018145;27;99473;-72
2022/03/29 10:14:31;;;;;;;39.10;22.80;;;;;;;;;;5009630;28;98519;-71
2022/03/29 10:16:58;;;;;;;44.22;26.27;;;;;;;;;;4993773;28;99571;-72
2022/03/29 10:19:25;;;;;;;42.20;25.30;;;;;;;;;;4992487;28;98724;-72
2022/03/29 10:21:53;;;;;;;39.55;23.13;;;;;;;;;;5008379;28;99022;-72
2022/03/29 10:24:21;;;;;;;39.55;24.60;;;;;;;;;;5008782;28;100016;-72
2022/03/29 10:26:48;;;;;;;33.72;23.90;;;;;;;;;;5013134;28;100474;-72
2022/03/29 10:29:15;;;;;;;38.30;25.40;;;;;;;;;;5008449;28;98931;-71
2022/03/29 10:31:49;;;;;;;34.05;25.33;;;;;;;;;;5008564;28;99752;-72
2022/03/29 10:34:16;;;;;;;41.83;26.08;;;;;;;;;;4990220;28;97809;-72
2022/03/29 10:37:09;;;;;;;36.90;25.85;;;;;;;;;;4992006;28;99597;-72
2022/03/29 10:39:38;;;;;;;33.53;22.35;;;;;;;;;;4986505;28;99813;-71
2022/03/29 10:42:24;;;;;;;36.25;25.55;;;;;;;;;;4988368;28;99259;-71
2022/03/29 10:45:00;;;;;;;40.53;25.27;;;;;;;;;;4997102;28;101028;-72
2022/03/29 10:47:53;;;;;;;35.30;24.02;;;;;;;;;;5006357;28;101076;-74
2022/03/29 10:50:19;;;;;;;34.70;25.02;;;;;;;;;;5003111;28;98546;-71
2022/03/29 10:52:47;;;;;;;36.00;24.20;;;;;;;;;;5004501;28;100570;-71
2022/03/29 10:55:15;;;;;;;41.95;25.50;;;;;;;;;;5007878;28;98601;-71
2022/03/29 10:58:02;;;;;;;40.80;23.05;;;;;;;;;;5002938;28;100285;-71
2022/03/29 11:00:31;;;;;;;37.25;23.85;;;;;;;;;;5000809;28;99471;-71
2022/03/29 11:03:10;;;;;;;34.78;24.02;;;;;;;;;;5006179;28;98878;-71
2022/03/29 11:05:55;;;;;;;35.15;21.90;;;;;;;;;;5004727;28;100023;-71
2022/03/29 11:08:22;;;;;;;35.45;23.95;;;;;;;;;;5002513;27;100250;-71
2022/03/29 11:10:48;;;;;;;34.50;23.60;;;;;;;;;;5004598;28;98601;-71
2022/03/29 11:13:37;;;;;;;41.65;28.65;;;;;;;;;;5007194;28;99240;-70
2022/03/29 11:16:22;;;;;;;38.20;25.48;;;;;;;;;;5006696;27;101082;-70
2022/03/29 11:18:48;;;;;;;31.85;20.08;;;;;;;;;;5004044;28;99230;-70
2022/03/29 11:21:27;;;;;;;28.30;20.15;;;;;;;;;;5007134;28;100040;-70
2022/03/29 11:23:56;;;;;;;32.50;23.77;;;;;;;;;;5004675;28;99142;-69
2022/03/29 11:26:23;;;;;;;29.75;22.20;;;;;;;;;;5000616;28;100509;-70
2022/03/29 11:28:52;;;;;;;31.70;23.13;;;;;;;;;;5004762;28;100293;-69
2022/03/29 11:31:19;;;;;;;34.40;23.58;;;;;;;;;;5004034;28;98558;-69
2022/03/29 11:33:51;;;;;;;30.15;21.85;;;;;;;;;;5004581;28;99828;-70
2022/03/29 11:36:18;;;;;;;27.73;20.77;;;;;;;;;;5005013;28;99724;-69
2022/03/29 11:38:45;;;;;;;28.13;22.17;;;;;;;;;;5004123;28;99284;-70
2022/03/29 11:41:25;;;;;;;26.20;20.77;;;;;;;;;;5001448;28;99665;-71
2022/03/29 11:43:52;;;;;;;25.10;20.67;;;;;;;;;;5000146;28;99113;-71
2022/03/29 11:46:21;;;;;;;30.77;22.60;;;;;;;;;;4999847;28;99984;-71
2022/03/29 11:48:49;;;;;;;25.92;21.13;;;;;;;;;;5005761;28;100894;-71
2022/03/29 11:51:16;;;;;;;31.05;21.92;;;;;;;;;;5007278;28;98327;-71
2022/03/29 11:53:43;;;;;;;39.65;29.95;;;;;;;;;;5002465;28;99309;-71
2022/03/29 11:56:13;;;;;;;28.13;20.80;;;;;;;;;;5006768;28;100216;-74
2022/03/29 11:58:58;;;;;;;36.17;25.67;;;;;;;;;;5009293;28;99290;-73
2022/03/29 12:01:27;;;;;;;33.28;22.52;;;;;;;;;;5006660;28;100634;-76
2022/03/29 12:04:03;;;;;;;30.77;23.98;;;;;;;;;;5006997;28;98672;-73
2022/03/29 12:06:30;;;;;;;32.88;21.52;;;;;;;;;;5006061;28;99612;-71
2022/03/29 12:08:58;;;;;;;23.42;19.08;;;;;;;;;;5007740;28;100376;-71
2022/03/29 12:11:31;;;;;;;28.50;21.17;;;;;;;;;;5008257;28;99282;-72
2022/03/29 12:14:18;;;;;;;27.00;18.73;;;;;;;;;;5007693;28;100040;-71
2022/03/29 12:16:46;;;;;;;28.67;19.45;;;;;;;;;;5008394;28;102211;-71
2022/03/29 12:19:20;;;;;;;30.83;21.63;;;;;;;;;;5011190;28;98524;-71
2022/03/29 12:21:51;;;;;;;23.95;19.17;;;;;;;;;;5007498;28;99985;-71
2022/03/29 12:24:24;;;;;;;27.33;18.70;;;;;;;;;;5007263;28;100274;-71
2022/03/29 12:26:51;;;;;;;23.70;18.30;;;;;;;;;;5008245;28;99692;-71
2022/03/29 12:29:19;;;;;;;28.48;18.95;;;;;;;;;;5006845;28;100143;-71
2022/03/29 12:31:46;;;;;;;23.90;18.55;;;;;;;;;;5008358;28;99685;-71
2022/03/29 12:34:14;;;;;;;26.45;18.60;;;;;;;;;;5007385;28;99315;-72
2022/03/29 12:36:41;;;;;;;24.85;17.50;;;;;;;;;;5007614;28;100451;-72
2022/03/29 12:39:08;;;;;;;23.98;19.25;;;;;;;;;;5008371;28;99015;-72
2022/03/29 12:41:48;;;;;;;15.40;13.15;;;;;;;;;;5011100;28;99723;-72
2022/03/29 12:44:26;;;;;;;20.08;15.68;;;;;;;;;;5007650;28;98551;-71
2022/03/29 12:46:52;;;;;;;23.55;17.77;;;;;;;;;;5008200;28;99150;-71
2022/03/29 12:49:18;;;;;;;24.05;18.65;;;;;;;;;;5005711;28;100964;-71
2022/03/29 12:51:51;;;;;;;22.77;15.23;;;;;;;;;;5008245;28;98539;-71
2022/03/29 12:54:18;;;;;;;26.27;17.60;;;;;;;;;;5008329;28;98538;-71
2022/03/29 12:56:45;;;;;;;24.70;17.00;;;;;;;;;;5006832;28;99475;-71
2022/03/29 12:59:45;;;;;;;21.83;16.60;;;;;;;;;;5007371;28;98561;-71
2022/03/29 13:02:12;;;;;;;23.52;19.17;;;;;;;;;;4984065;28;99321;-72
2022/03/29 13:04:40;;;;;;;18.05;15.98;;;;;;;;;;5010604;28;99643;-72
2022/03/29 13:07:07;;;;;;;22.05;15.43;;;;;;;;;;5008226;28;99859;-71
2022/03/29 13:09:33;;;;;;;25.80;18.48;;;;;;;;;;5005434;28;99848;-72
2022/03/29 13:12:13;;;;;;;26.67;17.23;;;;;;;;;;5007433;28;98626;-71
2022/03/29 13:14:42;;;;;;;21.92;17.73;;;;;;;;;;5007543;28;99348;-71
2022/03/29 13:17:09;;;;;;;19.85;16.80;;;;;;;;;;5006462;28;100178;-71
2022/03/29 13:19:51;;;;;;;23.48;16.83;;;;;;;;;;5007807;28;98865;-71
2022/03/29 13:22:20;;;;;;;26.77;17.95;;;;;;;;;;5007462;28;100346;-72
2022/03/29 13:24:47;;;;;;;23.00;17.20;;;;;;;;;;5006303;28;99577;-72
2022/03/29 13:27:13;;;;;;;21.95;17.27;;;;;;;;;;5010559;28;98557;-72
2022/03/29 13:29:40;;;;;;;24.70;17.88;;;;;;;;;;5006988;28;100246;-72
2022/03/29 13:32:08;;;;;;;25.20;18.30;;;;;;;;;;5007245;28;97827;-72
2022/03/29 13:34:34;;;;;;;30.25;18.75;;;;;;;;;;5007237;28;99304;-72
2022/03/29 13:37:01;;;;;;;22.48;18.88;;;;;;;;;;5006392;28;100315;-72
2022/03/29 13:39:27;;;;;;;22.95;18.65;;;;;;;;;;5005526;28;99798;-72
2022/03/29 13:42:09;;;;;;;24.58;16.67;;;;;;;;;;5007750;28;100904;-72
2022/03/29 13:44:36;;;;;;;27.63;18.75;;;;;;;;;;5006350;28;99888;-72
2022/03/29 13:47:02;;;;;;;24.77;20.05;;;;;;;;;;5007228;28;98610;-72
2022/03/29 13:49:29;;;;;;;31.35;18.77;;;;;;;;;;5009950;28;100071;-72
2022/03/29 13:51:56;;;;;;;19.73;14.25;;;;;;;;;;5006574;28;98554;-72
2022/03/29 13:54:23;;;;;;;21.33;16.23;;;;;;;;;;5007828;28;99084;-72
2022/03/29 13:56:49;;;;;;;20.75;15.85;;;;;;;;;;5010852;28;99741;-72
2022/03/29 13:59:21;;;;;;;18.83;15.18;;;;;;;;;;5010111;28;98519;-72
2022/03/29 14:01:47;;;;;;;26.85;13.68;;;;;;;;;;5010504;28;99250;-72
2022/03/29 14:04:14;;;;;;;17.10;13.50;;;;;;;;;;5009380;28;100938;-72
2022/03/29 14:06:40;;;;;;;21.77;12.98;;;;;;;;;;5009721;28;98904;-72
2022/03/29 14:09:06;;;;;;;23.30;15.48;;;;;;;;;;5009945;28;99409;-72
2022/03/29 14:11:33;;;;;;;21.13;15.23;;;;;;;;;;5013155;28;100445;-72
2022/03/29 14:14:00;;;;;;;28.25;14.65;;;;;;;;;;5009270;28;100321;-72
2022/03/29 14:16:26;;;;;;;25.90;15.85;;;;;;;;;;5009526;28;99355;-72
2022/03/29 14:18:53;;;;;;;23.73;15.25;;;;;;;;;;5010688;28;98831;-72
2022/03/29 14:21:20;;;;;;;16.50;14.10;;;;;;;;;;5009689;28;99996;-72
2022/03/29 14:23:46;;;;;;;21.42;15.27;;;;;;;;;;5009561;28;100261;-72
2022/03/29 14:26:13;;;;;;;26.20;20.35;;;;;;;;;;5009975;28;98770;-72
2022/03/29 14:28:39;;;;;;;28.75;22.42;;;;;;;;;;5008117;28;100683;-72